sensor_id;sensor_type;location;lat;lon;timestamp;P1;durP1;ratioP1;P2;durP2;ratioP2
16634;SDS011;8431;52.458;9.998;2022-12-04T00:00:04;62.80;;;29.92;;
16634;SDS011;8431;52.458;9.998;2022-12-04T00:02:33;69.35;;;30.27;;
16634;SDS011;8431;52.458;9.998;2022-12-04T00:05:00;67.35;;;30.48;;
16634;SDS011;8431;52.458;9.998;2022-12-04T00:07:27;71.03;;;31.80;;
16634;SDS011;8431;52.458;9.998;2022-12-04T00:09:55;68.85;;;31.10;;
16634;SDS011;8431;52.458;9.998;2022-12-04T00:14:55;72.80;;;30.13;;
16634;SDS011;8431;52.458;9.998;2022-12-04T00:17:22;64.20;;;28.73;;
16634;SDS011;8431;52.458;9.998;2022-12-04T00:19:49;65.07;;;29.58;;
16634;SDS011;8431;52.458;9.998;2022-12-04T00:22:16;62.53;;;28.60;;
16634;SDS011;8431;52.458;9.998;2022-12-04T00:24:45;61.17;;;28.42;;
16634;SDS011;8431;52.458;9.998;2022-12-04T00:27:13;65.35;;;29.50;;
16634;SDS011;8431;52.458;9.998;2022-12-04T00:29:40;67.15;;;29.58;;
16634;SDS011;8431;52.458;9.998;2022-12-04T00:32:07;66.65;;;28.60;;
16634;SDS011;8431;52.458;9.998;2022-12-04T00:34:34;70.07;;;29.30;;
16634;SDS011;8431;52.458;9.998;2022-12-04T00:37:01;66.85;;;29.25;;
16634;SDS011;8431;52.458;9.998;2022-12-04T00:39:29;68.55;;;28.95;;
16634;SDS011;8431;52.458;9.998;2022-12-04T00:41:55;70.95;;;31.58;;
16634;SDS011;8431;52.458;9.998;2022-12-04T00:44:24;69.93;;;30.10;;
16634;SDS011;8431;52.458;9.998;2022-12-04T00:46:51;71.18;;;31.58;;
16634;SDS011;8431;52.458;9.998;2022-12-04T00:49:18;70.65;;;30.50;;
16634;SDS011;8431;52.458;9.998;2022-12-04T00:51:45;70.13;;;27.90;;
16634;SDS011;8431;52.458;9.998;2022-12-04T00:54:12;65.25;;;30.45;;
16634;SDS011;8431;52.458;9.998;2022-12-04T00:56:39;63.38;;;29.50;;
16634;SDS011;8431;52.458;9.998;2022-12-04T00:59:06;65.50;;;28.88;;
16634;SDS011;8431;52.458;9.998;2022-12-04T01:01:36;71.60;;;30.48;;
16634;SDS011;8431;52.458;9.998;2022-12-04T01:04:03;64.82;;;27.67;;
16634;SDS011;8431;52.458;9.998;2022-12-04T01:09:34;63.78;;;27.30;;
16634;SDS011;8431;52.458;9.998;2022-12-04T01:12:01;68.60;;;29.33;;
16634;SDS011;8431;52.458;9.998;2022-12-04T01:14:28;73.22;;;30.08;;
16634;SDS011;8431;52.458;9.998;2022-12-04T01:16:57;69.60;;;29.60;;
16634;SDS011;8431;52.458;9.998;2022-12-04T01:19:24;66.65;;;28.25;;
16634;SDS011;8431;52.458;9.998;2022-12-04T01:21:51;75.25;;;28.98;;
16634;SDS011;8431;52.458;9.998;2022-12-04T01:24:18;66.38;;;27.30;;
16634;SDS011;8431;52.458;9.998;2022-12-04T01:26:45;70.88;;;29.73;;
16634;SDS011;8431;52.458;9.998;2022-12-04T01:29:12;60.42;;;27.50;;
16634;SDS011;8431;52.458;9.998;2022-12-04T01:31:39;68.13;;;27.63;;
16634;SDS011;8431;52.458;9.998;2022-12-04T01:34:08;65.80;;;28.02;;
16634;SDS011;8431;52.458;9.998;2022-12-04T01:36:35;70.03;;;28.33;;
16634;SDS011;8431;52.458;9.998;2022-12-04T01:39:02;65.07;;;27.48;;
16634;SDS011;8431;52.458;9.998;2022-12-04T01:41:30;66.40;;;28.20;;
16634;SDS011;8431;52.458;9.998;2022-12-04T01:44:07;72.13;;;28.63;;
16634;SDS011;8431;52.458;9.998;2022-12-04T01:46:36;74.75;;;28.75;;
16634;SDS011;8431;52.458;9.998;2022-12-04T01:49:03;73.60;;;28.33;;
16634;SDS011;8431;52.458;9.998;2022-12-04T01:51:34;71.60;;;29.38;;
16634;SDS011;8431;52.458;9.998;2022-12-04T01:54:06;80.03;;;30.25;;
16634;SDS011;8431;52.458;9.998;2022-12-04T01:56:40;73.78;;;29.45;;
16634;SDS011;8431;52.458;9.998;2022-12-04T01:59:11;70.35;;;28.90;;
16634;SDS011;8431;52.458;9.998;2022-12-04T02:01:43;72.32;;;27.48;;
16634;SDS011;8431;52.458;9.998;2022-12-04T02:04:15;74.90;;;29.95;;
16634;SDS011;8431;52.458;9.998;2022-12-04T02:06:44;73.05;;;28.13;;
16634;SDS011;8431;52.458;9.998;2022-12-04T02:09:11;69.22;;;27.90;;
16634;SDS011;8431;52.458;9.998;2022-12-04T02:11:40;66.93;;;26.55;;
16634;SDS011;8431;52.458;9.998;2022-12-04T02:14:14;65.22;;;27.45;;
16634;SDS011;8431;52.458;9.998;2022-12-04T02:16:54;71.78;;;27.60;;
16634;SDS011;8431;52.458;9.998;2022-12-04T02:19:32;70.50;;;27.98;;
16634;SDS011;8431;52.458;9.998;2022-12-04T02:22:28;65.28;;;27.08;;
16634;SDS011;8431;52.458;9.998;2022-12-04T02:25:04;71.00;;;28.17;;
16634;SDS011;8431;52.458;9.998;2022-12-04T02:30:30;74.40;;;26.77;;
16634;SDS011;8431;52.458;9.998;2022-12-04T02:33:03;66.90;;;26.73;;
16634;SDS011;8431;52.458;9.998;2022-12-04T02:35:36;71.57;;;28.95;;
16634;SDS011;8431;52.458;9.998;2022-12-04T02:38:09;70.18;;;29.15;;
16634;SDS011;8431;52.458;9.998;2022-12-04T02:40:42;79.72;;;29.02;;
16634;SDS011;8431;52.458;9.998;2022-12-04T02:43:17;78.57;;;28.90;;
16634;SDS011;8431;52.458;9.998;2022-12-04T02:45:50;80.10;;;28.63;;
16634;SDS011;8431;52.458;9.998;2022-12-04T02:48:22;74.15;;;29.17;;
16634;SDS011;8431;52.458;9.998;2022-12-04T02:50:52;78.15;;;29.50;;
16634;SDS011;8431;52.458;9.998;2022-12-04T02:53:24;71.90;;;27.55;;
16634;SDS011;8431;52.458;9.998;2022-12-04T02:55:59;81.30;;;31.55;;
16634;SDS011;8431;52.458;9.998;2022-12-04T02:58:32;77.38;;;30.77;;
16634;SDS011;8431;52.458;9.998;2022-12-04T03:01:05;75.18;;;29.42;;
16634;SDS011;8431;52.458;9.998;2022-12-04T03:03:44;72.63;;;30.02;;
16634;SDS011;8431;52.458;9.998;2022-12-04T03:06:14;79.13;;;30.23;;
16634;SDS011;8431;52.458;9.998;2022-12-04T03:08:44;76.95;;;30.60;;
16634;SDS011;8431;52.458;9.998;2022-12-04T03:11:17;82.38;;;31.30;;
16634;SDS011;8431;52.458;9.998;2022-12-04T03:13:46;82.95;;;31.73;;
16634;SDS011;8431;52.458;9.998;2022-12-04T03:16:17;78.40;;;29.95;;
16634;SDS011;8431;52.458;9.998;2022-12-04T03:18:48;71.65;;;30.60;;
16634;SDS011;8431;52.458;9.998;2022-12-04T03:21:20;72.25;;;30.95;;
16634;SDS011;8431;52.458;9.998;2022-12-04T03:23:53;72.57;;;30.35;;
16634;SDS011;8431;52.458;9.998;2022-12-04T03:26:26;77.50;;;31.45;;
16634;SDS011;8431;52.458;9.998;2022-12-04T03:29:02;75.78;;;29.55;;
16634;SDS011;8431;52.458;9.998;2022-12-04T03:31:34;70.95;;;30.08;;
16634;SDS011;8431;52.458;9.998;2022-12-04T03:34:06;77.50;;;30.05;;
16634;SDS011;8431;52.458;9.998;2022-12-04T03:36:35;69.90;;;29.67;;
16634;SDS011;8431;52.458;9.998;2022-12-04T03:39:07;66.57;;;29.25;;
16634;SDS011;8431;52.458;9.998;2022-12-04T03:41:45;66.60;;;29.85;;
16634;SDS011;8431;52.458;9.998;2022-12-04T03:44:21;77.53;;;31.92;;
16634;SDS011;8431;52.458;9.998;2022-12-04T03:46:51;66.50;;;30.15;;
16634;SDS011;8431;52.458;9.998;2022-12-04T03:49:23;64.22;;;29.92;;
16634;SDS011;8431;52.458;9.998;2022-12-04T03:52:00;66.80;;;30.65;;
16634;SDS011;8431;52.458;9.998;2022-12-04T03:54:32;75.85;;;31.73;;
16634;SDS011;8431;52.458;9.998;2022-12-04T03:57:04;77.10;;;31.98;;
16634;SDS011;8431;52.458;9.998;2022-12-04T03:59:38;73.57;;;29.20;;
16634;SDS011;8431;52.458;9.998;2022-12-04T04:02:09;70.10;;;30.42;;
16634;SDS011;8431;52.458;9.998;2022-12-04T04:04:39;76.82;;;32.42;;
16634;SDS011;8431;52.458;9.998;2022-12-04T04:07:10;72.65;;;31.35;;
16634;SDS011;8431;52.458;9.998;2022-12-04T04:09:45;76.53;;;31.30;;
16634;SDS011;8431;52.458;9.998;2022-12-04T04:12:16;72.60;;;31.17;;
16634;SDS011;8431;52.458;9.998;2022-12-04T04:14:48;69.38;;;31.15;;
16634;SDS011;8431;52.458;9.998;2022-12-04T04:17:36;71.90;;;30.05;;
16634;SDS011;8431;52.458;9.998;2022-12-04T04:20:27;70.43;;;31.95;;
16634;SDS011;8431;52.458;9.998;2022-12-04T04:23:17;69.07;;;30.52;;
16634;SDS011;8431;52.458;9.998;2022-12-04T04:26:04;70.85;;;30.70;;
16634;SDS011;8431;52.458;9.998;2022-12-04T04:28:34;69.68;;;29.67;;
16634;SDS011;8431;52.458;9.998;2022-12-04T04:31:09;66.32;;;30.58;;
16634;SDS011;8431;52.458;9.998;2022-12-04T04:33:44;72.80;;;31.33;;
16634;SDS011;8431;52.458;9.998;2022-12-04T04:36:17;66.78;;;30.80;;
16634;SDS011;8431;52.458;9.998;2022-12-04T04:38:51;70.78;;;31.10;;
16634;SDS011;8431;52.458;9.998;2022-12-04T04:41:26;66.45;;;30.52;;
16634;SDS011;8431;52.458;9.998;2022-12-04T04:44:02;60.90;;;31.70;;
16634;SDS011;8431;52.458;9.998;2022-12-04T04:46:37;71.18;;;32.13;;
16634;SDS011;8431;52.458;9.998;2022-12-04T04:49:09;68.38;;;32.22;;
16634;SDS011;8431;52.458;9.998;2022-12-04T04:51:39;69.03;;;31.65;;
16634;SDS011;8431;52.458;9.998;2022-12-04T04:54:08;73.80;;;32.00;;
16634;SDS011;8431;52.458;9.998;2022-12-04T04:56:41;66.60;;;30.30;;
16634;SDS011;8431;52.458;9.998;2022-12-04T04:59:09;69.63;;;31.92;;
16634;SDS011;8431;52.458;9.998;2022-12-04T05:01:38;63.90;;;30.52;;
16634;SDS011;8431;52.458;9.998;2022-12-04T05:04:06;61.33;;;30.38;;
16634;SDS011;8431;52.458;9.998;2022-12-04T05:06:34;68.65;;;30.90;;
16634;SDS011;8431;52.458;9.998;2022-12-04T05:09:01;66.03;;;30.75;;
16634;SDS011;8431;52.458;9.998;2022-12-04T05:11:28;66.53;;;30.30;;
16634;SDS011;8431;52.458;9.998;2022-12-04T05:13:56;61.42;;;29.65;;
16634;SDS011;8431;52.458;9.998;2022-12-04T05:16:23;60.88;;;29.63;;
16634;SDS011;8431;52.458;9.998;2022-12-04T05:18:51;62.17;;;31.50;;
16634;SDS011;8431;52.458;9.998;2022-12-04T05:21:35;65.22;;;29.45;;
16634;SDS011;8431;52.458;9.998;2022-12-04T05:24:03;62.72;;;31.30;;
16634;SDS011;8431;52.458;9.998;2022-12-04T05:26:30;63.15;;;31.00;;
16634;SDS011;8431;52.458;9.998;2022-12-04T05:28:57;67.65;;;31.98;;
16634;SDS011;8431;52.458;9.998;2022-12-04T05:31:24;71.80;;;30.83;;
16634;SDS011;8431;52.458;9.998;2022-12-04T05:33:53;58.58;;;29.00;;
16634;SDS011;8431;52.458;9.998;2022-12-04T05:36:20;63.58;;;31.38;;
16634;SDS011;8431;52.458;9.998;2022-12-04T05:38:47;66.47;;;30.25;;
16634;SDS011;8431;52.458;9.998;2022-12-04T05:41:14;64.30;;;30.08;;
16634;SDS011;8431;52.458;9.998;2022-12-04T05:43:41;62.13;;;30.90;;
16634;SDS011;8431;52.458;9.998;2022-12-04T05:46:08;65.18;;;30.77;;
16634;SDS011;8431;52.458;9.998;2022-12-04T05:48:36;63.35;;;30.38;;
16634;SDS011;8431;52.458;9.998;2022-12-04T05:51:05;60.70;;;29.92;;
16634;SDS011;8431;52.458;9.998;2022-12-04T05:53:33;65.22;;;30.45;;
16634;SDS011;8431;52.458;9.998;2022-12-04T05:56:01;59.47;;;30.45;;
16634;SDS011;8431;52.458;9.998;2022-12-04T05:58:29;61.38;;;30.60;;
16634;SDS011;8431;52.458;9.998;2022-12-04T06:00:59;55.72;;;28.65;;
16634;SDS011;8431;52.458;9.998;2022-12-04T06:03:26;61.80;;;30.23;;
16634;SDS011;8431;52.458;9.998;2022-12-04T06:05:54;60.35;;;29.70;;
16634;SDS011;8431;52.458;9.998;2022-12-04T06:08:23;53.17;;;28.65;;
16634;SDS011;8431;52.458;9.998;2022-12-04T06:10:50;59.42;;;29.75;;
16634;SDS011;8431;52.458;9.998;2022-12-04T06:13:17;61.35;;;28.38;;
16634;SDS011;8431;52.458;9.998;2022-12-04T06:15:44;58.65;;;29.77;;
16634;SDS011;8431;52.458;9.998;2022-12-04T06:18:11;56.17;;;28.92;;
16634;SDS011;8431;52.458;9.998;2022-12-04T06:20:38;56.55;;;29.23;;
16634;SDS011;8431;52.458;9.998;2022-12-04T06:23:05;56.00;;;28.73;;
16634;SDS011;8431;52.458;9.998;2022-12-04T06:25:34;58.83;;;29.83;;
16634;SDS011;8431;52.458;9.998;2022-12-04T06:28:01;54.70;;;28.08;;
16634;SDS011;8431;52.458;9.998;2022-12-04T06:30:28;62.92;;;28.80;;
16634;SDS011;8431;52.458;9.998;2022-12-04T06:32:55;57.88;;;29.40;;
16634;SDS011;8431;52.458;9.998;2022-12-04T06:35:22;58.67;;;30.13;;
16634;SDS011;8431;52.458;9.998;2022-12-04T06:37:49;57.97;;;28.80;;
16634;SDS011;8431;52.458;9.998;2022-12-04T06:40:16;52.95;;;27.40;;
16634;SDS011;8431;52.458;9.998;2022-12-04T06:42:45;54.22;;;27.25;;
16634;SDS011;8431;52.458;9.998;2022-12-04T06:45:12;55.78;;;28.35;;
16634;SDS011;8431;52.458;9.998;2022-12-04T06:47:39;57.33;;;28.38;;
16634;SDS011;8431;52.458;9.998;2022-12-04T06:50:12;58.13;;;28.27;;
16634;SDS011;8431;52.458;9.998;2022-12-04T06:52:39;55.90;;;29.70;;
16634;SDS011;8431;52.458;9.998;2022-12-04T06:55:06;56.88;;;29.48;;
16634;SDS011;8431;52.458;9.998;2022-12-04T06:57:34;56.15;;;28.58;;
16634;SDS011;8431;52.458;9.998;2022-12-04T07:00:04;57.28;;;29.45;;
16634;SDS011;8431;52.458;9.998;2022-12-04T07:02:32;58.30;;;29.35;;
16634;SDS011;8431;52.458;9.998;2022-12-04T07:04:59;55.80;;;28.02;;
16634;SDS011;8431;52.458;9.998;2022-12-04T07:07:26;52.22;;;29.08;;
16634;SDS011;8431;52.458;9.998;2022-12-04T07:09:53;60.50;;;28.85;;
16634;SDS011;8431;52.458;9.998;2022-12-04T07:12:20;57.67;;;28.75;;
16634;SDS011;8431;52.458;9.998;2022-12-04T07:14:47;57.30;;;28.83;;
16634;SDS011;8431;52.458;9.998;2022-12-04T07:17:16;55.20;;;27.27;;
16634;SDS011;8431;52.458;9.998;2022-12-04T07:19:43;54.13;;;27.83;;
16634;SDS011;8431;52.458;9.998;2022-12-04T07:22:11;56.15;;;28.45;;
16634;SDS011;8431;52.458;9.998;2022-12-04T07:24:38;52.25;;;27.02;;
16634;SDS011;8431;52.458;9.998;2022-12-04T07:27:05;56.42;;;27.63;;
16634;SDS011;8431;52.458;9.998;2022-12-04T07:29:32;59.72;;;28.63;;
16634;SDS011;8431;52.458;9.998;2022-12-04T07:31:59;58.20;;;27.58;;
16634;SDS011;8431;52.458;9.998;2022-12-04T07:34:27;57.85;;;28.40;;
16634;SDS011;8431;52.458;9.998;2022-12-04T07:36:55;57.90;;;29.30;;
16634;SDS011;8431;52.458;9.998;2022-12-04T07:39:22;59.20;;;29.00;;
16634;SDS011;8431;52.458;9.998;2022-12-04T07:41:49;60.17;;;30.17;;
16634;SDS011;8431;52.458;9.998;2022-12-04T07:44:16;59.88;;;29.92;;
16634;SDS011;8431;52.458;9.998;2022-12-04T07:46:43;58.83;;;30.17;;
16634;SDS011;8431;52.458;9.998;2022-12-04T07:49:10;55.67;;;29.58;;
16634;SDS011;8431;52.458;9.998;2022-12-04T07:51:39;62.78;;;28.48;;
16634;SDS011;8431;52.458;9.998;2022-12-04T07:54:06;68.43;;;29.52;;
16634;SDS011;8431;52.458;9.998;2022-12-04T07:56:34;56.97;;;30.42;;
16634;SDS011;8431;52.458;9.998;2022-12-04T07:59:01;60.05;;;30.17;;
16634;SDS011;8431;52.458;9.998;2022-12-04T08:01:28;55.45;;;28.55;;
16634;SDS011;8431;52.458;9.998;2022-12-04T08:03:56;59.40;;;31.02;;
16634;SDS011;8431;52.458;9.998;2022-12-04T08:06:25;57.30;;;29.33;;
16634;SDS011;8431;52.458;9.998;2022-12-04T08:08:54;60.75;;;29.58;;
16634;SDS011;8431;52.458;9.998;2022-12-04T08:11:23;60.78;;;29.88;;
16634;SDS011;8431;52.458;9.998;2022-12-04T08:13:52;62.03;;;29.88;;
16634;SDS011;8431;52.458;9.998;2022-12-04T08:16:20;64.85;;;31.27;;
16634;SDS011;8431;52.458;9.998;2022-12-04T08:18:47;67.78;;;32.17;;
16634;SDS011;8431;52.458;9.998;2022-12-04T08:21:14;58.03;;;29.38;;
16634;SDS011;8431;52.458;9.998;2022-12-04T08:23:44;65.32;;;29.55;;
16634;SDS011;8431;52.458;9.998;2022-12-04T08:26:13;59.28;;;30.13;;
16634;SDS011;8431;52.458;9.998;2022-12-04T08:28:41;63.70;;;32.17;;
16634;SDS011;8431;52.458;9.998;2022-12-04T08:31:09;62.20;;;31.17;;
16634;SDS011;8431;52.458;9.998;2022-12-04T08:33:37;57.97;;;29.88;;
16634;SDS011;8431;52.458;9.998;2022-12-04T08:36:05;58.33;;;30.17;;
16634;SDS011;8431;52.458;9.998;2022-12-04T08:38:33;63.65;;;31.13;;
16634;SDS011;8431;52.458;9.998;2022-12-04T08:41:00;64.95;;;30.55;;
16634;SDS011;8431;52.458;9.998;2022-12-04T08:43:29;59.58;;;31.80;;
16634;SDS011;8431;52.458;9.998;2022-12-04T08:45:56;64.38;;;31.27;;
16634;SDS011;8431;52.458;9.998;2022-12-04T08:48:24;65.85;;;32.47;;
16634;SDS011;8431;52.458;9.998;2022-12-04T08:50:51;61.50;;;31.60;;
16634;SDS011;8431;52.458;9.998;2022-12-04T08:53:19;64.75;;;31.75;;
16634;SDS011;8431;52.458;9.998;2022-12-04T08:55:47;62.28;;;31.17;;
16634;SDS011;8431;52.458;9.998;2022-12-04T08:58:14;64.55;;;32.78;;
16634;SDS011;8431;52.458;9.998;2022-12-04T09:00:43;68.10;;;32.35;;
16634;SDS011;8431;52.458;9.998;2022-12-04T09:09:14;67.05;;;33.33;;
16634;SDS011;8431;52.458;9.998;2022-12-04T09:21:05;69.10;;;32.95;;
16634;SDS011;8431;52.458;9.998;2022-12-04T09:23:48;67.35;;;33.28;;
16634;SDS011;8431;52.458;9.998;2022-12-04T09:26:23;64.47;;;32.67;;
16634;SDS011;8431;52.458;9.998;2022-12-04T09:29:09;68.18;;;32.33;;
16634;SDS011;8431;52.458;9.998;2022-12-04T09:32:03;65.90;;;31.17;;
16634;SDS011;8431;52.458;9.998;2022-12-04T09:35:01;67.50;;;30.60;;
16634;SDS011;8431;52.458;9.998;2022-12-04T09:37:35;67.95;;;32.30;;
16634;SDS011;8431;52.458;9.998;2022-12-04T09:40:10;71.78;;;32.60;;
16634;SDS011;8431;52.458;9.998;2022-12-04T09:42:52;69.88;;;32.42;;
16634;SDS011;8431;52.458;9.998;2022-12-04T09:45:38;61.60;;;31.70;;
16634;SDS011;8431;52.458;9.998;2022-12-04T09:54:06;69.22;;;32.67;;
16634;SDS011;8431;52.458;9.998;2022-12-04T09:56:37;67.15;;;33.33;;
16634;SDS011;8431;52.458;9.998;2022-12-04T09:59:09;68.10;;;32.78;;
16634;SDS011;8431;52.458;9.998;2022-12-04T10:01:43;72.13;;;31.95;;
16634;SDS011;8431;52.458;9.998;2022-12-04T10:04:18;67.07;;;33.15;;
16634;SDS011;8431;52.458;9.998;2022-12-04T10:06:55;77.10;;;34.30;;
16634;SDS011;8431;52.458;9.998;2022-12-04T10:09:30;75.68;;;34.47;;
16634;SDS011;8431;52.458;9.998;2022-12-04T10:12:07;69.13;;;33.13;;
16634;SDS011;8431;52.458;9.998;2022-12-04T10:14:44;71.38;;;32.97;;
16634;SDS011;8431;52.458;9.998;2022-12-04T10:17:38;74.95;;;33.83;;
16634;SDS011;8431;52.458;9.998;2022-12-04T10:20:26;72.70;;;32.65;;
16634;SDS011;8431;52.458;9.998;2022-12-04T10:23:06;77.10;;;33.47;;
16634;SDS011;8431;52.458;9.998;2022-12-04T10:25:40;74.78;;;33.22;;
16634;SDS011;8431;52.458;9.998;2022-12-04T10:28:15;71.00;;;33.53;;
16634;SDS011;8431;52.458;9.998;2022-12-04T10:30:48;76.03;;;32.53;;
16634;SDS011;8431;52.458;9.998;2022-12-04T10:33:20;67.85;;;32.33;;
16634;SDS011;8431;52.458;9.998;2022-12-04T10:35:50;73.25;;;34.00;;
16634;SDS011;8431;52.458;9.998;2022-12-04T10:38:24;72.53;;;33.28;;
16634;SDS011;8431;52.458;9.998;2022-12-04T10:41:01;70.25;;;32.47;;
16634;SDS011;8431;52.458;9.998;2022-12-04T10:43:33;75.80;;;33.15;;
16634;SDS011;8431;52.458;9.998;2022-12-04T10:46:09;68.97;;;33.60;;
16634;SDS011;8431;52.458;9.998;2022-12-04T10:48:40;60.72;;;33.05;;
16634;SDS011;8431;52.458;9.998;2022-12-04T10:51:13;70.40;;;33.67;;
16634;SDS011;8431;52.458;9.998;2022-12-04T10:53:43;66.05;;;31.48;;
16634;SDS011;8431;52.458;9.998;2022-12-04T10:56:15;68.03;;;32.88;;
16634;SDS011;8431;52.458;9.998;2022-12-04T10:58:53;68.28;;;33.88;;
16634;SDS011;8431;52.458;9.998;2022-12-04T11:01:21;77.47;;;33.80;;
16634;SDS011;8431;52.458;9.998;2022-12-04T11:03:53;73.38;;;33.08;;
16634;SDS011;8431;52.458;9.998;2022-12-04T11:06:23;73.40;;;31.98;;
16634;SDS011;8431;52.458;9.998;2022-12-04T11:08:50;62.88;;;29.73;;
16634;SDS011;8431;52.458;9.998;2022-12-04T11:11:23;69.75;;;33.15;;
16634;SDS011;8431;52.458;9.998;2022-12-04T11:13:59;70.43;;;33.15;;
16634;SDS011;8431;52.458;9.998;2022-12-04T11:16:31;70.15;;;33.15;;
16634;SDS011;8431;52.458;9.998;2022-12-04T11:19:02;72.05;;;31.67;;
16634;SDS011;8431;52.458;9.998;2022-12-04T11:21:43;68.97;;;32.75;;
16634;SDS011;8431;52.458;9.998;2022-12-04T11:24:14;74.45;;;32.65;;
16634;SDS011;8431;52.458;9.998;2022-12-04T11:26:47;67.97;;;33.15;;
16634;SDS011;8431;52.458;9.998;2022-12-04T11:29:16;66.57;;;32.28;;
16634;SDS011;8431;52.458;9.998;2022-12-04T11:31:48;71.13;;;33.03;;
16634;SDS011;8431;52.458;9.998;2022-12-04T11:34:17;77.65;;;35.17;;
16634;SDS011;8431;52.458;9.998;2022-12-04T11:36:49;69.25;;;33.53;;
16634;SDS011;8431;52.458;9.998;2022-12-04T11:39:19;72.85;;;32.08;;
16634;SDS011;8431;52.458;9.998;2022-12-04T11:42:05;80.57;;;34.13;;
16634;SDS011;8431;52.458;9.998;2022-12-04T11:44:48;74.93;;;33.03;;
16634;SDS011;8431;52.458;9.998;2022-12-04T11:47:17;73.13;;;34.70;;
16634;SDS011;8431;52.458;9.998;2022-12-04T11:49:55;77.75;;;34.28;;
16634;SDS011;8431;52.458;9.998;2022-12-04T11:52:28;74.05;;;34.30;;
16634;SDS011;8431;52.458;9.998;2022-12-04T11:55:06;78.22;;;34.08;;
16634;SDS011;8431;52.458;9.998;2022-12-04T11:57:44;80.03;;;35.13;;
16634;SDS011;8431;52.458;9.998;2022-12-04T12:00:16;73.18;;;33.75;;
16634;SDS011;8431;52.458;9.998;2022-12-04T12:02:48;78.22;;;34.17;;
16634;SDS011;8431;52.458;9.998;2022-12-04T12:05:28;80.25;;;35.72;;
16634;SDS011;8431;52.458;9.998;2022-12-04T12:08:12;81.68;;;34.28;;
16634;SDS011;8431;52.458;9.998;2022-12-04T12:10:47;78.03;;;34.05;;
16634;SDS011;8431;52.458;9.998;2022-12-04T12:13:26;74.20;;;33.72;;
16634;SDS011;8431;52.458;9.998;2022-12-04T12:16:05;77.32;;;34.67;;
16634;SDS011;8431;52.458;9.998;2022-12-04T12:18:51;75.90;;;33.47;;
16634;SDS011;8431;52.458;9.998;2022-12-04T12:21:38;73.53;;;32.40;;
16634;SDS011;8431;52.458;9.998;2022-12-04T12:24:18;76.47;;;33.65;;
16634;SDS011;8431;52.458;9.998;2022-12-04T12:26:53;78.05;;;34.78;;
16634;SDS011;8431;52.458;9.998;2022-12-04T12:29:35;77.65;;;35.88;;
16634;SDS011;8431;52.458;9.998;2022-12-04T12:32:18;74.55;;;33.20;;
16634;SDS011;8431;52.458;9.998;2022-12-04T12:35:00;82.25;;;33.70;;
16634;SDS011;8431;52.458;9.998;2022-12-04T12:37:30;73.35;;;33.80;;
16634;SDS011;8431;52.458;9.998;2022-12-04T12:42:42;71.95;;;33.47;;
16634;SDS011;8431;52.458;9.998;2022-12-04T12:45:18;80.88;;;34.55;;
16634;SDS011;8431;52.458;9.998;2022-12-04T12:47:58;82.72;;;35.70;;
16634;SDS011;8431;52.458;9.998;2022-12-04T12:53:08;76.43;;;34.60;;
16634;SDS011;8431;52.458;9.998;2022-12-04T12:55:41;79.43;;;35.50;;
16634;SDS011;8431;52.458;9.998;2022-12-04T12:58:20;78.82;;;34.88;;
16634;SDS011;8431;52.458;9.998;2022-12-04T13:00:56;77.85;;;34.63;;
16634;SDS011;8431;52.458;9.998;2022-12-04T13:03:29;90.75;;;35.22;;
16634;SDS011;8431;52.458;9.998;2022-12-04T13:06:04;79.40;;;34.80;;
16634;SDS011;8431;52.458;9.998;2022-12-04T13:08:36;81.60;;;34.13;;
16634;SDS011;8431;52.458;9.998;2022-12-04T13:11:07;88.35;;;35.78;;
16634;SDS011;8431;52.458;9.998;2022-12-04T13:13:39;82.93;;;36.60;;
16634;SDS011;8431;52.458;9.998;2022-12-04T13:16:11;85.53;;;35.90;;
16634;SDS011;8431;52.458;9.998;2022-12-04T13:18:44;86.57;;;35.85;;
16634;SDS011;8431;52.458;9.998;2022-12-04T13:21:19;84.97;;;34.92;;
16634;SDS011;8431;52.458;9.998;2022-12-04T13:23:57;87.68;;;36.88;;
16634;SDS011;8431;52.458;9.998;2022-12-04T13:26:52;81.63;;;34.58;;
16634;SDS011;8431;52.458;9.998;2022-12-04T13:29:29;85.07;;;35.22;;
16634;SDS011;8431;52.458;9.998;2022-12-04T13:32:13;89.82;;;36.95;;
16634;SDS011;8431;52.458;9.998;2022-12-04T13:35:02;93.93;;;36.70;;
16634;SDS011;8431;52.458;9.998;2022-12-04T13:37:44;95.45;;;35.33;;
16634;SDS011;8431;52.458;9.998;2022-12-04T13:40:27;92.93;;;34.78;;
16634;SDS011;8431;52.458;9.998;2022-12-04T13:43:18;92.25;;;37.00;;
16634;SDS011;8431;52.458;9.998;2022-12-04T13:45:51;99.80;;;36.97;;
16634;SDS011;8431;52.458;9.998;2022-12-04T13:48:32;95.53;;;36.13;;
16634;SDS011;8431;52.458;9.998;2022-12-04T13:51:22;102.70;;;38.38;;
16634;SDS011;8431;52.458;9.998;2022-12-04T13:56:51;91.03;;;36.10;;
16634;SDS011;8431;52.458;9.998;2022-12-04T13:59:21;89.50;;;36.03;;
16634;SDS011;8431;52.458;9.998;2022-12-04T14:01:59;102.88;;;38.85;;
16634;SDS011;8431;52.458;9.998;2022-12-04T14:04:30;94.40;;;36.97;;
16634;SDS011;8431;52.458;9.998;2022-12-04T14:07:01;102.15;;;37.90;;
16634;SDS011;8431;52.458;9.998;2022-12-04T14:09:30;92.72;;;37.08;;
16634;SDS011;8431;52.458;9.998;2022-12-04T14:12:04;97.68;;;36.95;;
16634;SDS011;8431;52.458;9.998;2022-12-04T14:14:37;96.78;;;37.90;;
16634;SDS011;8431;52.458;9.998;2022-12-04T14:17:13;103.88;;;39.30;;
16634;SDS011;8431;52.458;9.998;2022-12-04T14:19:44;94.70;;;37.78;;
16634;SDS011;8431;52.458;9.998;2022-12-04T14:22:25;100.28;;;34.78;;
16634;SDS011;8431;52.458;9.998;2022-12-04T14:25:04;99.75;;;38.42;;
16634;SDS011;8431;52.458;9.998;2022-12-04T15:06:19;121.15;;;40.05;;
16634;SDS011;8431;52.458;9.998;2022-12-04T15:08:52;102.03;;;38.53;;
16634;SDS011;8431;52.458;9.998;2022-12-04T15:11:43;110.93;;;38.75;;
16634;SDS011;8431;52.458;9.998;2022-12-04T15:14:37;114.38;;;37.88;;
16634;SDS011;8431;52.458;9.998;2022-12-04T15:17:08;103.45;;;38.55;;
16634;SDS011;8431;52.458;9.998;2022-12-04T15:22:36;98.78;;;38.08;;
16634;SDS011;8431;52.458;9.998;2022-12-04T15:25:11;106.90;;;39.50;;
16634;SDS011;8431;52.458;9.998;2022-12-04T15:27:41;116.13;;;40.03;;
16634;SDS011;8431;52.458;9.998;2022-12-04T15:30:14;121.35;;;39.20;;
16634;SDS011;8431;52.458;9.998;2022-12-04T15:35:51;110.72;;;40.35;;
16634;SDS011;8431;52.458;9.998;2022-12-04T15:38:23;113.00;;;41.08;;
16634;SDS011;8431;52.458;9.998;2022-12-04T15:40:52;120.00;;;40.40;;
16634;SDS011;8431;52.458;9.998;2022-12-04T15:46:30;114.57;;;38.67;;
16634;SDS011;8431;52.458;9.998;2022-12-04T15:49:05;109.72;;;37.65;;
16634;SDS011;8431;52.458;9.998;2022-12-04T15:51:46;111.07;;;40.15;;
16634;SDS011;8431;52.458;9.998;2022-12-04T15:54:17;117.15;;;40.00;;
16634;SDS011;8431;52.458;9.998;2022-12-04T15:56:56;101.45;;;39.60;;
16634;SDS011;8431;52.458;9.998;2022-12-04T15:59:25;109.10;;;39.65;;
16634;SDS011;8431;52.458;9.998;2022-12-04T16:01:53;107.22;;;39.53;;
16634;SDS011;8431;52.458;9.998;2022-12-04T16:04:22;104.57;;;39.20;;
16634;SDS011;8431;52.458;9.998;2022-12-04T16:06:53;114.47;;;39.30;;
16634;SDS011;8431;52.458;9.998;2022-12-04T16:09:22;114.40;;;37.75;;
16634;SDS011;8431;52.458;9.998;2022-12-04T16:11:57;101.78;;;37.97;;
16634;SDS011;8431;52.458;9.998;2022-12-04T16:16:57;106.90;;;38.83;;
16634;SDS011;8431;52.458;9.998;2022-12-04T16:19:27;108.28;;;38.72;;
16634;SDS011;8431;52.458;9.998;2022-12-04T16:21:57;113.05;;;40.17;;
16634;SDS011;8431;52.458;9.998;2022-12-04T16:24:27;106.25;;;38.78;;
16634;SDS011;8431;52.458;9.998;2022-12-04T16:26:54;110.03;;;38.38;;
16634;SDS011;8431;52.458;9.998;2022-12-04T16:31:54;106.30;;;37.03;;